sensor_id;sensor_type;location;lat;lon;timestamp;pressure;altitude;pressure_sealevel;temperature;humidity
1616;BME280;801;47.982;7.810;2023-02-26T00:01:48;98059.53;;;2.83;100.00
1616;BME280;801;47.982;7.810;2023-02-26T00:04:14;98049.88;;;2.88;100.00
1616;BME280;801;47.982;7.810;2023-02-26T00:06:42;98051.91;;;2.75;100.00
1616;BME280;801;47.982;7.810;2023-02-26T00:09:17;98053.78;;;2.86;100.00
1616;BME280;801;47.982;7.810;2023-02-26T00:11:45;98057.16;;;2.93;100.00
1616;BME280;801;47.982;7.810;2023-02-26T00:14:13;98052.91;;;2.74;100.00
1616;BME280;801;47.982;7.810;2023-02-26T00:16:40;98060.19;;;2.78;100.00
1616;BME280;801;47.982;7.810;2023-02-26T00:19:09;98065.25;;;2.68;100.00
1616;BME280;801;47.982;7.810;2023-02-26T00:21:37;98066.38;;;2.72;100.00
1616;BME280;801;47.982;7.810;2023-02-26T00:24:06;98062.81;;;2.48;100.00
1616;BME280;801;47.982;7.810;2023-02-26T00:26:33;98071.50;;;2.55;99.77
1616;BME280;801;47.982;7.810;2023-02-26T00:29:00;98069.94;;;2.47;98.60
1616;BME280;801;47.982;7.810;2023-02-26T00:31:28;98072.59;;;2.47;97.32
1616;BME280;801;47.982;7.810;2023-02-26T00:33:55;98071.50;;;2.55;97.91
1616;BME280;801;47.982;7.810;2023-02-26T00:36:26;98065.53;;;2.41;97.92
1616;BME280;801;47.982;7.810;2023-02-26T00:39:03;98064.69;;;2.41;97.48
1616;BME280;801;47.982;7.810;2023-02-26T00:41:34;98067.91;;;2.06;98.94
1616;BME280;801;47.982;7.810;2023-02-26T00:44:03;98070.44;;;2.19;98.14
1616;BME280;801;47.982;7.810;2023-02-26T00:46:36;98074.28;;;2.23;97.29
1616;BME280;801;47.982;7.810;2023-02-26T00:49:15;98070.53;;;2.31;97.82
1616;BME280;801;47.982;7.810;2023-02-26T00:51:48;98068.25;;;2.35;97.92
1616;BME280;801;47.982;7.810;2023-02-26T00:54:18;98069.84;;;2.36;98.20
1616;BME280;801;47.982;7.810;2023-02-26T00:56:48;98073.09;;;2.19;97.96
1616;BME280;801;47.982;7.810;2023-02-26T00:59:15;98078.44;;;2.13;98.44
1616;BME280;801;47.982;7.810;2023-02-26T01:01:42;98074.84;;;2.25;98.69
1616;BME280;801;47.982;7.810;2023-02-26T01:04:10;98086.81;;;2.10;99.65
1616;BME280;801;47.982;7.810;2023-02-26T01:06:40;98087.88;;;2.08;99.29
1616;BME280;801;47.982;7.810;2023-02-26T01:09:14;98082.63;;;2.02;99.88
1616;BME280;801;47.982;7.810;2023-02-26T01:11:43;98086.94;;;1.96;99.39
1616;BME280;801;47.982;7.810;2023-02-26T01:14:12;98086.13;;;1.96;99.82
1616;BME280;801;47.982;7.810;2023-02-26T01:16:46;98081.03;;;1.94;99.11
1616;BME280;801;47.982;7.810;2023-02-26T01:19:21;98083.97;;;1.86;99.75
1616;BME280;801;47.982;7.810;2023-02-26T01:21:55;98081.88;;;1.95;99.12
1616;BME280;801;47.982;7.810;2023-02-26T01:24:27;98073.84;;;1.76;99.30
1616;BME280;801;47.982;7.810;2023-02-26T01:26:56;98086.44;;;1.56;100.00
1616;BME280;801;47.982;7.810;2023-02-26T01:29:24;98083.41;;;1.52;100.00
1616;BME280;801;47.982;7.810;2023-02-26T01:31:54;98081.09;;;1.87;100.00
1616;BME280;801;47.982;7.810;2023-02-26T01:34:25;98081.63;;;1.71;100.00
1616;BME280;801;47.982;7.810;2023-02-26T01:37:02;98079.97;;;1.77;100.00
1616;BME280;801;47.982;7.810;2023-02-26T01:39:36;98076.03;;;1.61;100.00
1616;BME280;801;47.982;7.810;2023-02-26T01:42:11;98075.72;;;1.44;100.00
1616;BME280;801;47.982;7.810;2023-02-26T01:44:41;98078.94;;;1.53;100.00
1616;BME280;801;47.982;7.810;2023-02-26T01:47:16;98074.72;;;1.38;100.00
1616;BME280;801;47.982;7.810;2023-02-26T01:49:45;98073.16;;;1.62;100.00
1616;BME280;801;47.982;7.810;2023-02-26T01:55:30;98084.31;;;1.39;100.00
1616;BME280;801;47.982;7.810;2023-02-26T01:57:58;98081.19;;;1.49;100.00
1616;BME280;801;47.982;7.810;2023-02-26T02:00:29;98082.19;;;1.55;100.00
1616;BME280;801;47.982;7.810;2023-02-26T02:02:56;98090.97;;;1.49;100.00
1616;BME280;801;47.982;7.810;2023-02-26T02:05:26;98089.44;;;1.66;100.00
1616;BME280;801;47.982;7.810;2023-02-26T02:07:54;98092.50;;;1.63;100.00
1616;BME280;801;47.982;7.810;2023-02-26T02:10:22;98083.72;;;1.37;100.00
1616;BME280;801;47.982;7.810;2023-02-26T02:12:54;98079.16;;;1.13;99.89
1616;BME280;801;47.982;7.810;2023-02-26T02:15:29;98081.19;;;1.17;99.86
1616;BME280;801;47.982;7.810;2023-02-26T02:18:03;98066.81;;;1.00;99.55
1616;BME280;801;47.982;7.810;2023-02-26T02:20:53;98078.44;;;0.99;100.00
1616;BME280;801;47.982;7.810;2023-02-26T02:23:29;98082.50;;;0.95;99.79
1616;BME280;801;47.982;7.810;2023-02-26T02:26:17;98088.22;;;0.98;98.90
1616;BME280;801;47.982;7.810;2023-02-26T02:29:02;98087.84;;;0.88;100.00
1616;BME280;801;47.982;7.810;2023-02-26T02:31:38;98095.78;;;0.88;100.00
1616;BME280;801;47.982;7.810;2023-02-26T02:34:11;98089.13;;;0.72;100.00
1616;BME280;801;47.982;7.810;2023-02-26T02:36:43;98094.66;;;0.57;100.00
1616;BME280;801;47.982;7.810;2023-02-26T02:39:14;98097.56;;;1.01;99.22
1616;BME280;801;47.982;7.810;2023-02-26T02:41:44;98098.72;;;1.12;99.44
1616;BME280;801;47.982;7.810;2023-02-26T02:44:15;98097.81;;;0.86;99.13
1616;BME280;801;47.982;7.810;2023-02-26T02:46:45;98101.94;;;1.14;99.45
1616;BME280;801;47.982;7.810;2023-02-26T02:49:14;98106.00;;;1.23;99.34
1616;BME280;801;47.982;7.810;2023-02-26T02:51:47;98095.75;;;1.33;98.42
1616;BME280;801;47.982;7.810;2023-02-26T02:54:21;98090.03;;;1.36;98.13
1616;BME280;801;47.982;7.810;2023-02-26T02:56:54;98094.56;;;1.22;98.46
1616;BME280;801;47.982;7.810;2023-02-26T02:59:25;98095.53;;;0.96;97.51
1616;BME280;801;47.982;7.810;2023-02-26T03:02:00;98099.03;;;0.90;99.16
1616;BME280;801;47.982;7.810;2023-02-26T03:04:30;98095.38;;;0.85;99.45
1616;BME280;801;47.982;7.810;2023-02-26T03:06:57;98102.63;;;0.96;98.43
1616;BME280;801;47.982;7.810;2023-02-26T03:09:24;98103.88;;;0.93;98.37
1616;BME280;801;47.982;7.810;2023-02-26T03:11:50;98104.06;;;1.05;98.56
1616;BME280;801;47.982;7.810;2023-02-26T03:14:17;98108.88;;;0.70;100.00
1616;BME280;801;47.982;7.810;2023-02-26T03:17:08;98105.19;;;1.16;100.00
1616;BME280;801;47.982;7.810;2023-02-26T03:19:43;98116.94;;;0.81;100.00
1616;BME280;801;47.982;7.810;2023-02-26T03:22:17;98112.69;;;0.87;99.56
1616;BME280;801;47.982;7.810;2023-02-26T03:24:49;98127.97;;;0.72;100.00
1616;BME280;801;47.982;7.810;2023-02-26T03:27:21;98123.66;;;0.84;100.00
1616;BME280;801;47.982;7.810;2023-02-26T03:29:53;98132.25;;;0.73;100.00
1616;BME280;801;47.982;7.810;2023-02-26T03:32:28;98132.31;;;0.33;100.00
1616;BME280;801;47.982;7.810;2023-02-26T03:35:00;98137.59;;;0.46;100.00
1616;BME280;801;47.982;7.810;2023-02-26T03:37:32;98137.97;;;0.70;99.86
1616;BME280;801;47.982;7.810;2023-02-26T03:40:04;98143.06;;;0.51;100.00
1616;BME280;801;47.982;7.810;2023-02-26T03:42:35;98132.06;;;0.61;100.00
1616;BME280;801;47.982;7.810;2023-02-26T03:45:06;98145.91;;;0.56;99.39
1616;BME280;801;47.982;7.810;2023-02-26T03:47:36;98137.72;;;0.78;99.42
1616;BME280;801;47.982;7.810;2023-02-26T03:50:07;98138.13;;;0.75;98.15
1616;BME280;801;47.982;7.810;2023-02-26T03:52:37;98131.34;;;0.99;97.72
1616;BME280;801;47.982;7.810;2023-02-26T03:55:08;98145.28;;;0.68;97.42
1616;BME280;801;47.982;7.810;2023-02-26T03:57:36;98137.53;;;0.73;97.91
1616;BME280;801;47.982;7.810;2023-02-26T04:00:04;98149.56;;;0.55;99.18
1616;BME280;801;47.982;7.810;2023-02-26T04:02:35;98145.34;;;0.41;98.62
1616;BME280;801;47.982;7.810;2023-02-26T04:05:08;98145.53;;;0.19;100.00
1616;BME280;801;47.982;7.810;2023-02-26T04:07:38;98154.47;;;0.45;99.33
1616;BME280;801;47.982;7.810;2023-02-26T04:10:05;98147.97;;;0.54;99.76
1616;BME280;801;47.982;7.810;2023-02-26T04:12:33;98152.66;;;0.46;99.17
1616;BME280;801;47.982;7.810;2023-02-26T04:15:00;98144.94;;;0.31;100.00
1616;BME280;801;47.982;7.810;2023-02-26T04:17:26;98159.78;;;0.18;100.00
1616;BME280;801;47.982;7.810;2023-02-26T04:19:53;98165.28;;;0.24;100.00
1616;BME280;801;47.982;7.810;2023-02-26T04:22:21;98162.63;;;0.24;100.00
1616;BME280;801;47.982;7.810;2023-02-26T04:24:47;98163.66;;;0.29;100.00
1616;BME280;801;47.982;7.810;2023-02-26T04:27:14;98162.81;;;0.02;100.00
1616;BME280;801;47.982;7.810;2023-02-26T04:29:41;98159.19;;;0.23;100.00
1616;BME280;801;47.982;7.810;2023-02-26T04:32:07;98158.56;;;0.21;100.00
1616;BME280;801;47.982;7.810;2023-02-26T04:34:33;98159.56;;;0.13;100.00
1616;BME280;801;47.982;7.810;2023-02-26T04:37:00;98164.66;;;-0.05;100.00
1616;BME280;801;47.982;7.810;2023-02-26T04:39:28;98162.00;;;0.08;100.00
1616;BME280;801;47.982;7.810;2023-02-26T04:41:54;98158.97;;;-0.09;100.00
1616;BME280;801;47.982;7.810;2023-02-26T04:44:21;98163.03;;;0.07;100.00
1616;BME280;801;47.982;7.810;2023-02-26T04:46:48;98164.03;;;0.19;100.00
1616;BME280;801;47.982;7.810;2023-02-26T04:49:14;98166.06;;;0.31;100.00
1616;BME280;801;47.982;7.810;2023-02-26T04:51:41;98156.53;;;0.16;100.00
1616;BME280;801;47.982;7.810;2023-02-26T04:54:07;98165.06;;;0.18;100.00
1616;BME280;801;47.982;7.810;2023-02-26T04:56:36;98168.09;;;0.02;100.00
1616;BME280;801;47.982;7.810;2023-02-26T04:59:02;98163.66;;;0.03;100.00
1616;BME280;801;47.982;7.810;2023-02-26T05:01:29;98151.44;;;-0.12;100.00
1616;BME280;801;47.982;7.810;2023-02-26T05:03:56;98143.31;;;-0.17;100.00
1616;BME280;801;47.982;7.810;2023-02-26T05:06:22;98155.50;;;-0.09;100.00
1616;BME280;801;47.982;7.810;2023-02-26T05:08:49;98155.91;;;-0.06;100.00
1616;BME280;801;47.982;7.810;2023-02-26T05:11:15;98162.81;;;0.09;98.73
1616;BME280;801;47.982;7.810;2023-02-26T05:13:43;98161.00;;;-0.04;99.89
1616;BME280;801;47.982;7.810;2023-02-26T05:16:10;98166.06;;;-0.03;99.52
1616;BME280;801;47.982;7.810;2023-02-26T05:18:36;98163.03;;;0.14;97.84
1616;BME280;801;47.982;7.810;2023-02-26T05:21:04;98169.75;;;0.10;97.86
1616;BME280;801;47.982;7.810;2023-02-26T05:23:31;98163.25;;;0.12;98.06
1616;BME280;801;47.982;7.810;2023-02-26T05:25:58;98176.25;;;0.14;97.22
1616;BME280;801;47.982;7.810;2023-02-26T05:28:25;98168.72;;;-0.03;97.53
1616;BME280;801;47.982;7.810;2023-02-26T05:30:55;98167.91;;;0.17;97.37
1616;BME280;801;47.982;7.810;2023-02-26T05:33:21;98178.91;;;0.14;96.74
1616;BME280;801;47.982;7.810;2023-02-26T05:35:48;98180.13;;;0.11;97.39
1616;BME280;801;47.982;7.810;2023-02-26T05:38:15;98182.75;;;0.05;97.99
1616;BME280;801;47.982;7.810;2023-02-26T05:40:41;98184.38;;;0.06;98.66
1616;BME280;801;47.982;7.810;2023-02-26T05:43:09;98190.88;;;-0.04;100.00
1616;BME280;801;47.982;7.810;2023-02-26T05:45:35;98191.25;;;-0.27;100.00
1616;BME280;801;47.982;7.810;2023-02-26T05:48:03;98197.53;;;-0.21;100.00
1616;BME280;801;47.982;7.810;2023-02-26T05:50:30;98203.41;;;-0.32;100.00
1616;BME280;801;47.982;7.810;2023-02-26T05:52:56;98203.81;;;-0.35;100.00
1616;BME280;801;47.982;7.810;2023-02-26T05:55:23;98209.03;;;-0.55;100.00
1616;BME280;801;47.982;7.810;2023-02-26T05:57:49;98209.88;;;-0.48;100.00
1616;BME280;801;47.982;7.810;2023-02-26T06:00:16;98207.81;;;-0.53;100.00
1616;BME280;801;47.982;7.810;2023-02-26T06:02:43;98202.75;;;-0.48;100.00
1616;BME280;801;47.982;7.810;2023-02-26T06:05:11;98210.34;;;-0.31;100.00
1616;BME280;801;47.982;7.810;2023-02-26T06:07:37;98214.34;;;-0.49;100.00
1616;BME280;801;47.982;7.810;2023-02-26T06:10:05;98215.97;;;-0.48;100.00
1616;BME280;801;47.982;7.810;2023-02-26T06:12:32;98213.16;;;-0.39;100.00
1616;BME280;801;47.982;7.810;2023-02-26T06:14:59;98215.09;;;-0.61;100.00
1616;BME280;801;47.982;7.810;2023-02-26T06:17:25;98222.09;;;-0.34;100.00
1616;BME280;801;47.982;7.810;2023-02-26T06:19:52;98230.38;;;-0.50;100.00
1616;BME280;801;47.982;7.810;2023-02-26T06:22:20;98232.97;;;-0.64;100.00
1616;BME280;801;47.982;7.810;2023-02-26T06:24:47;98241.09;;;-0.58;100.00
1616;BME280;801;47.982;7.810;2023-02-26T06:27:14;98240.53;;;-0.40;100.00
1616;BME280;801;47.982;7.810;2023-02-26T06:29:40;98244.81;;;-0.46;99.88
1616;BME280;801;47.982;7.810;2023-02-26T06:32:07;98251.13;;;-0.34;100.00
1616;BME280;801;47.982;7.810;2023-02-26T06:34:34;98253.44;;;-0.17;99.36
1616;BME280;801;47.982;7.810;2023-02-26T06:37:00;98248.34;;;-0.19;99.35
1616;BME280;801;47.982;7.810;2023-02-26T06:39:28;98254.19;;;-0.30;98.56
1616;BME280;801;47.982;7.810;2023-02-26T06:41:55;98250.91;;;-0.46;94.55
1616;BME280;801;47.982;7.810;2023-02-26T06:44:21;98254.13;;;-0.50;92.21
1616;BME280;801;47.982;7.810;2023-02-26T06:46:48;98257.22;;;-0.40;87.50
1616;BME280;801;47.982;7.810;2023-02-26T06:49:14;98252.59;;;-0.18;83.57
1616;BME280;801;47.982;7.810;2023-02-26T06:51:41;98253.63;;;-0.19;81.30
1616;BME280;801;47.982;7.810;2023-02-26T06:54:08;98266.06;;;-0.06;78.44
1616;BME280;801;47.982;7.810;2023-02-26T06:56:35;98264.81;;;-0.10;77.42
1616;BME280;801;47.982;7.810;2023-02-26T06:59:02;98268.31;;;0.10;77.50
1616;BME280;801;47.982;7.810;2023-02-26T07:01:29;98275.66;;;0.15;78.12
1616;BME280;801;47.982;7.810;2023-02-26T07:03:56;98281.56;;;0.24;81.79
1616;BME280;801;47.982;7.810;2023-02-26T07:06:23;98290.53;;;0.36;84.35
1616;BME280;801;47.982;7.810;2023-02-26T07:08:50;98289.69;;;0.29;87.59
1616;BME280;801;47.982;7.810;2023-02-26T07:11:16;98291.31;;;0.16;89.81
1616;BME280;801;47.982;7.810;2023-02-26T07:13:44;98296.97;;;0.20;90.54
1616;BME280;801;47.982;7.810;2023-02-26T07:16:11;98298.63;;;0.21;89.75
1616;BME280;801;47.982;7.810;2023-02-26T07:18:37;98304.31;;;0.18;90.79
1616;BME280;801;47.982;7.810;2023-02-26T07:21:04;98300.28;;;0.35;91.26
1616;BME280;801;47.982;7.810;2023-02-26T07:23:31;98302.09;;;0.35;89.74
1616;BME280;801;47.982;7.810;2023-02-26T07:25:58;98293.97;;;0.30;89.67
1616;BME280;801;47.982;7.810;2023-02-26T07:28:25;98301.69;;;0.31;89.73
1616;BME280;801;47.982;7.810;2023-02-26T07:30:54;98301.28;;;0.34;91.01
1616;BME280;801;47.982;7.810;2023-02-26T07:33:21;98297.81;;;0.20;91.14
1616;BME280;801;47.982;7.810;2023-02-26T07:35:48;98305.97;;;0.32;91.42
1616;BME280;801;47.982;7.810;2023-02-26T07:38:14;98308.81;;;0.37;90.29
1616;BME280;801;47.982;7.810;2023-02-26T07:40:40;98314.91;;;0.38;90.18
1616;BME280;801;47.982;7.810;2023-02-26T07:43:07;98311.69;;;0.49;93.59
1616;BME280;801;47.982;7.810;2023-02-26T07:45:34;98316.59;;;0.79;91.51
1616;BME280;801;47.982;7.810;2023-02-26T07:48:01;98317.19;;;0.61;91.78
1616;BME280;801;47.982;7.810;2023-02-26T07:50:28;98311.91;;;0.74;91.27
1616;BME280;801;47.982;7.810;2023-02-26T07:52:54;98315.34;;;0.75;91.86
1616;BME280;801;47.982;7.810;2023-02-26T07:55:21;98308.41;;;0.94;90.20
1616;BME280;801;47.982;7.810;2023-02-26T07:57:47;98302.31;;;0.80;91.79
1616;BME280;801;47.982;7.810;2023-02-26T08:00:15;98318.19;;;0.80;90.38
1616;BME280;801;47.982;7.810;2023-02-26T08:02:42;98315.78;;;0.78;89.71
1616;BME280;801;47.982;7.810;2023-02-26T08:05:10;98313.50;;;0.62;89.70
1616;BME280;801;47.982;7.810;2023-02-26T08:07:36;98313.75;;;0.60;90.86
1616;BME280;801;47.982;7.810;2023-02-26T08:10:03;98311.47;;;0.57;90.54
1616;BME280;801;47.982;7.810;2023-02-26T08:12:30;98308.63;;;0.59;89.55
1616;BME280;801;47.982;7.810;2023-02-26T08:14:57;98305.38;;;0.37;91.83
1616;BME280;801;47.982;7.810;2023-02-26T08:17:23;98303.94;;;0.34;90.91
1616;BME280;801;47.982;7.810;2023-02-26T08:19:50;98297.44;;;0.44;89.42
1616;BME280;801;47.982;7.810;2023-02-26T08:22:19;98297.88;;;0.60;91.04
1616;BME280;801;47.982;7.810;2023-02-26T08:24:45;98301.94;;;0.50;89.68
1616;BME280;801;47.982;7.810;2023-02-26T08:27:13;98301.31;;;0.74;87.55
1616;BME280;801;47.982;7.810;2023-02-26T08:29:39;98295.41;;;0.79;86.47
1616;BME280;801;47.982;7.810;2023-02-26T08:32:07;98302.72;;;0.90;86.92
1616;BME280;801;47.982;7.810;2023-02-26T08:34:33;98304.34;;;0.91;85.10
1616;BME280;801;47.982;7.810;2023-02-26T08:37:00;98297.63;;;0.95;83.51
1616;BME280;801;47.982;7.810;2023-02-26T08:39:28;98302.31;;;0.80;83.69
1616;BME280;801;47.982;7.810;2023-02-26T08:41:58;98312.06;;;1.13;85.26
1616;BME280;801;47.982;7.810;2023-02-26T08:44:24;98316.31;;;1.27;84.11
1616;BME280;801;47.982;7.810;2023-02-26T08:46:51;98315.75;;;0.98;83.97
1616;BME280;801;47.982;7.810;2023-02-26T08:49:17;98316.56;;;0.92;84.84
1616;BME280;801;47.982;7.810;2023-02-26T08:51:44;98309.44;;;0.73;85.59
1616;BME280;801;47.982;7.810;2023-02-26T08:54:11;98313.13;;;0.85;85.12
1616;BME280;801;47.982;7.810;2023-02-26T08:56:39;98318.41;;;0.98;84.54
1616;BME280;801;47.982;7.810;2023-02-26T08:59:05;98323.88;;;1.17;82.42
1616;BME280;801;47.982;7.810;2023-02-26T09:01:33;98314.94;;;0.85;78.90
1616;BME280;801;47.982;7.810;2023-02-26T09:03:59;98327.16;;;0.86;77.88
1616;BME280;801;47.982;7.810;2023-02-26T09:06:26;98328.38;;;1.03;79.72
1616;BME280;801;47.982;7.810;2023-02-26T09:08:52;98333.84;;;1.15;81.34
1616;BME280;801;47.982;7.810;2023-02-26T09:11:19;98327.75;;;1.08;80.70
1616;BME280;801;47.982;7.810;2023-02-26T09:13:47;98323.28;;;1.01;81.07
1616;BME280;801;47.982;7.810;2023-02-26T09:16:13;98324.09;;;0.95;78.10
1616;BME280;801;47.982;7.810;2023-02-26T09:18:40;98336.69;;;1.07;68.09
1616;BME280;801;47.982;7.810;2023-02-26T09:21:07;98335.69;;;1.08;64.40
1616;BME280;801;47.982;7.810;2023-02-26T09:23:34;98334.81;;;1.40;62.66
1616;BME280;801;47.982;7.810;2023-02-26T09:26:01;98343.06;;;1.77;61.49
1616;BME280;801;47.982;7.810;2023-02-26T09:28:28;98332.00;;;1.94;63.17
1616;BME280;801;47.982;7.810;2023-02-26T09:30:56;98327.03;;;2.11;63.59
1616;BME280;801;47.982;7.810;2023-02-26T09:33:22;98327.00;;;2.17;64.71
1616;BME280;801;47.982;7.810;2023-02-26T09:35:50;98336.69;;;1.92;62.26
1616;BME280;801;47.982;7.810;2023-02-26T09:38:17;98334.25;;;1.97;62.62
1616;BME280;801;47.982;7.810;2023-02-26T09:40:47;98328.31;;;2.01;63.02
1616;BME280;801;47.982;7.810;2023-02-26T09:43:48;98342.72;;;2.12;62.74
1616;BME280;801;47.982;7.810;2023-02-26T09:46:28;98330.34;;;2.38;63.93
1616;BME280;801;47.982;7.810;2023-02-26T09:49:04;98336.13;;;2.28;61.69
1616;BME280;801;47.982;7.810;2023-02-26T09:51:33;98341.25;;;2.16;58.92
1616;BME280;801;47.982;7.810;2023-02-26T09:54:08;98341.38;;;2.35;60.35
1616;BME280;801;47.982;7.810;2023-02-26T09:56:38;98346.16;;;2.19;61.08
1616;BME280;801;47.982;7.810;2023-02-26T09:59:08;98332.88;;;2.26;62.36
1616;BME280;801;47.982;7.810;2023-02-26T10:01:39;98351.94;;;2.03;61.56
1616;BME280;801;47.982;7.810;2023-02-26T10:04:13;98353.44;;;1.85;61.60
1616;BME280;801;47.982;7.810;2023-02-26T10:06:53;98341.75;;;2.00;62.65
1616;BME280;801;47.982;7.810;2023-02-26T10:09:37;98349.34;;;1.83;61.67
1616;BME280;801;47.982;7.810;2023-02-26T10:12:11;98349.78;;;1.80;60.52
1616;BME280;801;47.982;7.810;2023-02-26T10:14:42;98359.19;;;1.69;60.33
1616;BME280;801;47.982;7.810;2023-02-26T10:17:19;98350.97;;;1.91;61.46
1616;BME280;801;47.982;7.810;2023-02-26T10:19:51;98356.47;;;1.89;61.84
1616;BME280;801;47.982;7.810;2023-02-26T10:22:23;98363.66;;;1.82;64.18
1616;BME280;801;47.982;7.810;2023-02-26T10:24:57;98358.19;;;1.70;64.12
1616;BME280;801;47.982;7.810;2023-02-26T10:27:37;98367.53;;;1.79;65.19
1616;BME280;801;47.982;7.810;2023-02-26T10:30:10;98366.03;;;1.97;65.82
1616;BME280;801;47.982;7.810;2023-02-26T10:32:51;98372.56;;;1.87;65.05
1616;BME280;801;47.982;7.810;2023-02-26T10:35:21;98369.78;;;1.69;65.85
1616;BME280;801;47.982;7.810;2023-02-26T10:37:54;98376.53;;;1.58;65.85
1616;BME280;801;47.982;7.810;2023-02-26T10:40:25;98377.94;;;1.74;67.56
1616;BME280;801;47.982;7.810;2023-02-26T10:42:56;98369.59;;;1.64;66.45
1616;BME280;801;47.982;7.810;2023-02-26T10:45:45;98378.44;;;2.03;65.55
1616;BME280;801;47.982;7.810;2023-02-26T10:48:25;98375.38;;;2.06;67.89
1616;BME280;801;47.982;7.810;2023-02-26T10:50:56;98379.09;;;1.92;64.91
1616;BME280;801;47.982;7.810;2023-02-26T10:53:26;98384.34;;;2.05;63.83
1616;BME280;801;47.982;7.810;2023-02-26T10:55:58;98384.59;;;1.97;62.77
1616;BME280;801;47.982;7.810;2023-02-26T10:58:28;98368.69;;;2.42;61.88
1616;BME280;801;47.982;7.810;2023-02-26T11:00:55;98374.78;;;2.74;61.08
1616;BME280;801;47.982;7.810;2023-02-26T11:03:29;98379.00;;;3.76;57.62
1616;BME280;801;47.982;7.810;2023-02-26T11:05:57;98371.53;;;4.03;56.46
1616;BME280;801;47.982;7.810;2023-02-26T11:08:26;98375.56;;;4.24;55.63
1616;BME280;801;47.982;7.810;2023-02-26T11:10:54;98379.97;;;4.00;55.58
1616;BME280;801;47.982;7.810;2023-02-26T11:13:21;98384.53;;;3.56;55.98
1616;BME280;801;47.982;7.810;2023-02-26T11:15:50;98395.38;;;3.72;58.03
1616;BME280;801;47.982;7.810;2023-02-26T11:18:20;98392.06;;;3.77;59.50
1616;BME280;801;47.982;7.810;2023-02-26T11:20:52;98390.63;;;3.12;64.66
1616;BME280;801;47.982;7.810;2023-02-26T11:23:20;98385.34;;;2.81;69.61
1616;BME280;801;47.982;7.810;2023-02-26T11:25:52;98374.13;;;2.79;69.64
1616;BME280;801;47.982;7.810;2023-02-26T11:28:22;98378.09;;;2.69;72.70
1616;BME280;801;47.982;7.810;2023-02-26T11:30:50;98387.59;;;2.84;77.95
1616;BME280;801;47.982;7.810;2023-02-26T11:33:22;98388.63;;;2.51;84.19
1616;BME280;801;47.982;7.810;2023-02-26T11:35:59;98387.03;;;2.75;88.67
1616;BME280;801;47.982;7.810;2023-02-26T11:38:27;98389.47;;;3.08;89.08
1616;BME280;801;47.982;7.810;2023-02-26T11:40:55;98394.34;;;2.80;90.70
1616;BME280;801;47.982;7.810;2023-02-26T11:43:24;98387.25;;;2.42;89.64
1616;BME280;801;47.982;7.810;2023-02-26T11:45:54;98379.97;;;2.62;90.38
1616;BME280;801;47.982;7.810;2023-02-26T11:48:22;98374.56;;;3.26;84.04
1616;BME280;801;47.982;7.810;2023-02-26T11:50:54;98373.91;;;3.56;73.38
1616;BME280;801;47.982;7.810;2023-02-26T11:53:25;98378.63;;;3.72;68.21
1616;BME280;801;47.982;7.810;2023-02-26T11:55:59;98373.72;;;3.32;65.35
1616;BME280;801;47.982;7.810;2023-02-26T11:58:28;98375.88;;;3.42;65.14
1616;BME280;801;47.982;7.810;2023-02-26T12:00:58;98375.47;;;3.20;62.06
1616;BME280;801;47.982;7.810;2023-02-26T12:03:27;98373.53;;;2.77;58.44
1616;BME280;801;47.982;7.810;2023-02-26T12:05:56;98372.69;;;3.08;57.96
1616;BME280;801;47.982;7.810;2023-02-26T12:08:25;98382.94;;;3.04;56.46
1616;BME280;801;47.982;7.810;2023-02-26T12:11:04;98379.91;;;3.01;56.87
1616;BME280;801;47.982;7.810;2023-02-26T12:13:39;98385.44;;;2.99;57.85
1616;BME280;801;47.982;7.810;2023-02-26T12:16:13;98375.28;;;2.89;57.46
1616;BME280;801;47.982;7.810;2023-02-26T12:18:53;98370.69;;;3.03;57.96
1616;BME280;801;47.982;7.810;2023-02-26T12:21:49;98381.00;;;2.93;57.39
1616;BME280;801;47.982;7.810;2023-02-26T12:24:40;98375.59;;;3.06;57.12
1616;BME280;801;47.982;7.810;2023-02-26T12:27:18;98376.97;;;2.84;56.55
1616;BME280;801;47.982;7.810;2023-02-26T12:29:58;98369.56;;;2.93;56.71
1616;BME280;801;47.982;7.810;2023-02-26T12:32:38;98370.63;;;3.10;58.71
1616;BME280;801;47.982;7.810;2023-02-26T12:38:19;98349.09;;;2.75;60.28
1616;BME280;801;47.982;7.810;2023-02-26T12:41:10;98365.06;;;2.93;61.89
1616;BME280;801;47.982;7.810;2023-02-26T12:43:44;98368.09;;;2.97;63.09
1616;BME280;801;47.982;7.810;2023-02-26T12:46:21;98355.84;;;2.70;59.51
1616;BME280;801;47.982;7.810;2023-02-26T12:49:05;98364.84;;;2.63;60.37
1616;BME280;801;47.982;7.810;2023-02-26T12:51:51;98362.72;;;2.78;60.12
1616;BME280;801;47.982;7.810;2023-02-26T12:54:40;98360.72;;;2.74;59.54
1616;BME280;801;47.982;7.810;2023-02-26T12:57:34;98368.47;;;2.75;57.50
1616;BME280;801;47.982;7.810;2023-02-26T13:00:28;98360.13;;;2.72;58.74
1616;BME280;801;47.982;7.810;2023-02-26T13:03:31;98373.63;;;2.63;61.15
1616;BME280;801;47.982;7.810;2023-02-26T13:06:44;98373.94;;;2.48;66.52
1616;BME280;801;47.982;7.810;2023-02-26T13:09:28;98380.44;;;2.53;70.74
1616;BME280;801;47.982;7.810;2023-02-26T13:12:13;98367.50;;;2.31;69.29
1616;BME280;801;47.982;7.810;2023-02-26T13:14:57;98370.47;;;2.48;67.90
1616;BME280;801;47.982;7.810;2023-02-26T13:17:34;98374.38;;;2.77;67.26
1616;BME280;801;47.982;7.810;2023-02-26T13:20:10;98372.13;;;2.74;68.81
1616;BME280;801;47.982;7.810;2023-02-26T13:22:43;98367.31;;;2.89;67.25
1616;BME280;801;47.982;7.810;2023-02-26T13:25:17;98368.16;;;2.58;68.97
1616;BME280;801;47.982;7.810;2023-02-26T13:27:46;98362.34;;;2.75;69.40
1616;BME280;801;47.982;7.810;2023-02-26T13:30:21;98368.75;;;2.60;67.37
1616;BME280;801;47.982;7.810;2023-02-26T13:32:52;98363.28;;;2.55;70.32
1616;BME280;801;47.982;7.810;2023-02-26T13:35:24;98365.81;;;2.43;75.25
1616;BME280;801;47.982;7.810;2023-02-26T13:37:54;98369.81;;;2.59;77.05
1616;BME280;801;47.982;7.810;2023-02-26T13:40:32;98376.53;;;2.23;77.39
1616;BME280;801;47.982;7.810;2023-02-26T13:43:14;98370.34;;;2.29;76.60
1616;BME280;801;47.982;7.810;2023-02-26T13:45:49;98378.16;;;2.24;76.91
1616;BME280;801;47.982;7.810;2023-02-26T13:48:26;98378.38;;;2.16;75.66
1616;BME280;801;47.982;7.810;2023-02-26T13:51:02;98371.94;;;2.44;74.75
1616;BME280;801;47.982;7.810;2023-02-26T13:53:46;98386.84;;;2.70;74.92
1616;BME280;801;47.982;7.810;2023-02-26T13:56:15;98372.75;;;2.44;73.12
1616;BME280;801;47.982;7.810;2023-02-26T13:58:48;98375.50;;;2.56;75.13
1616;BME280;801;47.982;7.810;2023-02-26T14:01:16;98374.63;;;2.69;72.17
1616;BME280;801;47.982;7.810;2023-02-26T14:03:49;98376.69;;;2.67;71.20
1616;BME280;801;47.982;7.810;2023-02-26T14:06:39;98377.94;;;2.89;71.45